createdAt,value
2019-05-22T00:00:30.859Z,81.75
2019-05-22T00:03:03.290Z,80.97
2019-05-22T00:05:35.728Z,84.80
2019-05-22T00:08:05.471Z,81.05
2019-05-22T00:10:34.646Z,83.78
2019-05-22T00:13:06.986Z,78.20
2019-05-22T00:15:38.617Z,75.90
2019-05-22T00:18:07.651Z,75.87
2019-05-22T00:20:37.344Z,82.62
2019-05-22T00:23:12.847Z,87.05
2019-05-22T00:25:44.980Z,93.70
2019-05-22T00:28:14.922Z,104.65
2019-05-22T00:30:45.467Z,113.88
2019-05-22T00:33:14.978Z,106.32
2019-05-22T00:35:44.800Z,116.82
2019-05-22T00:38:15.213Z,121.30
2019-05-22T00:40:51.242Z,108.00
2019-05-22T00:43:21.657Z,97.88
2019-05-22T00:45:50.928Z,100.10
2019-05-22T00:48:22.144Z,94.22
2019-05-22T00:51:04.142Z,92.25
2019-05-22T00:53:44.673Z,99.92
2019-05-22T00:56:17.058Z,90.85
2019-05-22T00:58:58.219Z,89.45
2019-05-22T01:01:32.490Z,91.57
2019-05-22T01:04:02.863Z,93.10
2019-05-22T01:06:33.488Z,89.28
2019-05-22T01:09:05.818Z,91.37
2019-05-22T01:11:36.170Z,84.20
2019-05-22T01:14:05.397Z,76.20
2019-05-22T01:16:34.381Z,76.02
2019-05-22T01:19:05.936Z,84.83
2019-05-22T01:21:36.592Z,82.57
2019-05-22T01:24:07.437Z,81.75
2019-05-22T01:26:38.571Z,78.07
2019-05-22T01:29:09.403Z,80.42
2019-05-22T01:31:40.517Z,81.02
2019-05-22T01:34:15.994Z,73.62
2019-05-22T01:36:49.660Z,77.45
2019-05-22T01:39:26.106Z,77.05
2019-05-22T01:41:57.539Z,80.55
2019-05-22T01:44:28.578Z,76.47
2019-05-22T01:47:00.433Z,71.53
2019-05-22T01:49:30.841Z,69.35
2019-05-22T01:51:59.663Z,72.15
2019-05-22T01:54:30.315Z,68.45
2019-05-22T01:57:04.533Z,63.33
2019-05-22T01:59:35.725Z,62.10
2019-05-22T02:02:04.537Z,64.07
2019-05-22T02:04:34.280Z,55.65
2019-05-22T02:07:04.028Z,53.35
2019-05-22T02:09:37.979Z,55.17
2019-05-22T02:12:11.484Z,50.55
2019-05-22T02:14:44.512Z,50.43
2019-05-22T02:17:15.965Z,47.88
2019-05-22T02:19:44.713Z,46.33
2019-05-22T02:22:15.546Z,44.93
2019-05-22T02:24:45.715Z,42.48
2019-05-22T02:27:16.589Z,41.65
2019-05-22T02:29:47.077Z,42.33
2019-05-22T02:32:17.436Z,41.25
2019-05-22T02:34:46.198Z,42.48
2019-05-22T02:37:17.870Z,43.30
2019-05-22T02:39:48.044Z,39.88
2019-05-22T02:42:21.018Z,44.80
2019-05-22T02:44:50.296Z,42.20
2019-05-22T02:47:21.687Z,39.92
2019-05-22T02:49:51.751Z,38.23
2019-05-22T02:52:23.103Z,37.90
2019-05-22T02:54:52.403Z,39.05
2019-05-22T02:57:22.032Z,37.90
2019-05-22T02:59:50.873Z,36.70
2019-05-22T03:02:20.952Z,40.67
2019-05-22T03:04:59.630Z,41.23
2019-05-22T03:07:30.753Z,40.65
2019-05-22T03:10:01.888Z,36.95
2019-05-22T03:12:32.810Z,37.88
2019-05-22T03:15:02.268Z,35.52
2019-05-22T03:17:32.026Z,34.45
2019-05-22T03:20:04.664Z,31.97
2019-05-22T03:22:52.991Z,35.63
2019-05-22T03:25:22.198Z,38.25
2019-05-22T03:27:52.061Z,37.03
2019-05-22T03:30:31.292Z,40.83
2019-05-22T03:33:02.121Z,42.40
2019-05-22T03:35:35.031Z,38.85
2019-05-22T03:38:06.201Z,41.08
2019-05-22T03:40:37.498Z,36.70
2019-05-22T03:43:09.327Z,39.30
2019-05-22T03:45:39.912Z,39.95
2019-05-22T03:48:10.132Z,38.13
2019-05-22T03:50:40.966Z,44.13
2019-05-22T03:53:15.938Z,41.45
2019-05-22T03:55:46.404Z,40.75
2019-05-22T03:58:15.559Z,39.83
2019-05-22T04:00:45.255Z,39.15
2019-05-22T04:03:16.119Z,38.58
2019-05-22T04:05:47.598Z,37.28
2019-05-22T04:08:17.179Z,34.85
2019-05-22T04:11:05.569Z,33.23
2019-05-22T04:13:36.115Z,35.08
2019-05-22T04:16:08.263Z,35.92
2019-05-22T04:18:39.274Z,36.20
2019-05-22T04:21:08.922Z,39.15
2019-05-22T04:23:39.412Z,38.17
2019-05-22T04:26:09.658Z,35.58
2019-05-22T04:28:47.811Z,36.10
2019-05-22T04:31:17.703Z,38.13
2019-05-22T04:33:47.106Z,37.03
2019-05-22T04:36:16.733Z,35.40
2019-05-22T04:38:46.412Z,34.15
2019-05-22T04:41:16.866Z,35.92
2019-05-22T04:43:45.740Z,36.98
2019-05-22T04:46:17.613Z,37.03
2019-05-22T04:48:46.871Z,42.08
2019-05-22T04:51:22.783Z,38.25
2019-05-22T04:53:51.789Z,40.60
2019-05-22T04:56:20.682Z,50.48
2019-05-22T04:58:49.380Z,42.95
2019-05-22T05:01:19.846Z,38.38
2019-05-22T05:03:48.564Z,40.08
2019-05-22T05:06:19.727Z,40.50
2019-05-22T05:08:49.416Z,42.03
2019-05-22T05:11:19.175Z,45.25
2019-05-22T05:13:47.931Z,45.03
2019-05-22T05:16:18.144Z,44.30
2019-05-22T05:18:47.489Z,41.60
2019-05-22T05:21:16.224Z,46.48
2019-05-22T05:23:45.070Z,48.90
2019-05-22T05:26:14.435Z,41.15
2019-05-22T05:28:43.751Z,43.13
2019-05-22T05:31:13.333Z,39.55
2019-05-22T05:34:00.086Z,40.67
2019-05-22T05:36:29.440Z,40.80
2019-05-22T05:39:00.301Z,37.25
2019-05-22T05:41:29.896Z,36.53
2019-05-22T05:43:59.633Z,37.00
2019-05-22T05:46:28.588Z,41.65
2019-05-22T05:48:57.771Z,52.90
2019-05-22T05:51:30.286Z,44.03
2019-05-22T05:54:03.093Z,43.35
2019-05-22T05:56:33.741Z,44.03
2019-05-22T05:59:04.629Z,44.05
2019-05-22T06:01:35.448Z,55.30
2019-05-22T06:04:05.118Z,48.08
2019-05-22T06:06:38.728Z,43.78
2019-05-22T06:09:11.239Z,46.48
2019-05-22T06:11:53.062Z,49.53
2019-05-22T06:14:28.682Z,45.23
2019-05-22T06:17:14.168Z,41.83
2019-05-22T06:19:48.795Z,44.10
2019-05-22T06:22:19.860Z,39.53
2019-05-22T06:24:52.197Z,41.92
2019-05-22T06:27:25.682Z,40.35
2019-05-22T06:30:04.086Z,42.48
2019-05-22T06:32:55.153Z,45.83
2019-05-22T06:35:26.979Z,50.20
2019-05-22T06:38:30.542Z,43.50
2019-05-22T06:40:59.370Z,45.43
2019-05-22T06:43:31.338Z,47.43
2019-05-22T06:46:00.141Z,45.50
2019-05-22T06:48:29.708Z,49.67
2019-05-22T06:50:58.576Z,43.68
2019-05-22T06:53:27.346Z,41.45
2019-05-22T06:55:56.208Z,46.53
2019-05-22T06:58:25.491Z,47.03
2019-05-22T07:00:54.501Z,52.20
2019-05-22T07:03:24.546Z,47.53
2019-05-22T07:05:54.845Z,46.53
2019-05-22T07:08:24.142Z,46.30
2019-05-22T07:10:53.474Z,40.70
2019-05-22T07:13:22.261Z,44.42
2019-05-22T07:15:52.203Z,44.67
2019-05-22T07:18:24.071Z,217.80
2019-05-22T07:20:54.650Z,45.80
2019-05-22T07:23:25.024Z,50.05
2019-05-22T07:25:54.680Z,42.20
2019-05-22T07:28:25.913Z,43.63
2019-05-22T07:30:56.006Z,50.88
2019-05-22T07:33:26.087Z,44.63
2019-05-22T07:36:15.862Z,47.40
2019-05-22T07:38:25.728Z,42.00
2019-05-22T07:40:55.806Z,41.83
2019-05-22T07:43:25.139Z,41.92
2019-05-22T07:45:55.732Z,40.73
2019-05-22T07:48:26.787Z,43.35
2019-05-22T07:50:57.018Z,44.35
2019-05-22T07:53:26.412Z,42.23
2019-05-22T07:55:57.731Z,41.80
2019-05-22T07:58:29.313Z,42.13
2019-05-22T08:01:00.694Z,45.35
2019-05-22T08:03:32.004Z,39.45
2019-05-22T08:06:01.701Z,34.60
2019-05-22T08:08:33.236Z,33.80
2019-05-22T08:11:02.126Z,35.23
2019-05-22T08:13:32.304Z,37.45
2019-05-22T08:16:01.595Z,37.88
2019-05-22T08:18:33.354Z,35.30
2019-05-22T08:21:02.413Z,38.08
2019-05-22T08:23:31.571Z,34.18
2019-05-22T08:26:01.661Z,33.25
2019-05-22T08:28:31.953Z,38.65
2019-05-22T08:31:01.588Z,39.15
2019-05-22T08:33:32.069Z,37.40
2019-05-22T08:36:03.225Z,34.00
2019-05-22T08:38:33.086Z,32.60
2019-05-22T08:41:04.415Z,33.15
2019-05-22T08:43:55.991Z,32.17
2019-05-22T08:46:06.627Z,34.53
2019-05-22T08:48:38.150Z,34.48
2019-05-22T08:51:08.308Z,32.13
2019-05-22T08:53:46.882Z,31.57
2019-05-22T08:56:08.507Z,30.57
2019-05-22T08:58:39.543Z,33.42
2019-05-22T09:01:09.434Z,81.75
2019-05-22T09:03:38.182Z,32.23
2019-05-22T09:06:06.985Z,32.53
2019-05-22T09:08:35.805Z,38.60
2019-05-22T09:11:04.808Z,32.20
2019-05-22T09:13:34.353Z,30.15
2019-05-22T09:16:04.879Z,27.50
2019-05-22T09:18:34.276Z,30.12
2019-05-22T09:21:03.698Z,32.67
2019-05-22T09:23:33.769Z,27.70
2019-05-22T09:26:02.791Z,25.68
2019-05-22T09:28:31.674Z,25.48
2019-05-22T09:31:00.632Z,25.90
2019-05-22T09:33:30.678Z,30.97
2019-05-22T09:35:59.872Z,26.42
2019-05-22T09:38:29.401Z,40.63
2019-05-22T09:40:58.762Z,40.30
2019-05-22T09:43:27.490Z,316.80
2019-05-22T09:45:56.315Z,31.97
2019-05-22T09:48:25.367Z,30.70
2019-05-22T09:50:54.318Z,31.17
2019-05-22T09:53:23.092Z,28.85
2019-05-22T09:55:52.391Z,29.30
2019-05-22T09:58:21.492Z,46.28
2019-05-22T10:00:50.165Z,27.70
2019-05-22T10:03:19.223Z,26.55
2019-05-22T10:05:49.231Z,29.12
2019-05-22T10:08:17.907Z,27.35
2019-05-22T10:10:47.506Z,28.95
2019-05-22T10:13:16.500Z,34.75
2019-05-22T10:15:45.910Z,28.35
2019-05-22T10:18:14.834Z,27.30
2019-05-22T10:20:43.794Z,33.33
2019-05-22T10:23:15.964Z,31.60
2019-05-22T10:25:43.676Z,30.02
2019-05-22T10:28:13.191Z,25.50
2019-05-22T10:30:41.981Z,28.30
2019-05-22T10:33:11.243Z,30.92
2019-05-22T10:35:40.654Z,29.27
2019-05-22T10:38:10.202Z,28.17
2019-05-22T10:40:39.193Z,28.83
2019-05-22T10:43:08.037Z,27.52
2019-05-22T10:45:37.319Z,31.73
2019-05-22T10:48:06.137Z,25.97
2019-05-22T10:50:35.131Z,26.23
2019-05-22T10:53:03.965Z,33.18
2019-05-22T10:55:33.009Z,31.45
2019-05-22T10:58:01.926Z,29.27
2019-05-22T11:00:31.106Z,28.05
2019-05-22T11:03:00.028Z,21.90
2019-05-22T11:05:29.361Z,28.62
2019-05-22T11:07:59.847Z,20.95
2019-05-22T11:10:48.072Z,23.18
2019-05-22T11:13:18.147Z,24.37
2019-05-22T11:15:47.138Z,23.90
2019-05-22T11:18:15.965Z,19.55
2019-05-22T11:20:45.518Z,20.57
2019-05-22T11:23:14.239Z,26.10
2019-05-22T11:25:43.235Z,24.82
2019-05-22T11:28:12.142Z,16.37
2019-05-22T11:30:41.243Z,16.77
2019-05-22T11:33:10.074Z,13.85
2019-05-22T11:35:40.158Z,18.55
2019-05-22T11:38:09.156Z,19.23
2019-05-22T11:40:39.530Z,18.95
2019-05-22T11:43:10.126Z,20.35
2019-05-22T11:45:39.190Z,20.90
2019-05-22T11:48:08.396Z,17.70
2019-05-22T11:50:38.181Z,18.05
2019-05-22T11:53:06.999Z,17.32
2019-05-22T11:55:45.293Z,39.98
2019-05-22T11:58:06.864Z,17.15
2019-05-22T12:00:35.850Z,21.10
2019-05-22T12:03:05.628Z,17.92
2019-05-22T12:05:35.111Z,15.48
2019-05-22T12:08:04.683Z,17.12
2019-05-22T12:10:34.016Z,19.80
2019-05-22T12:13:03.889Z,15.18
2019-05-22T12:15:34.522Z,13.80
2019-05-22T12:18:03.636Z,12.30
2019-05-22T12:20:34.456Z,12.47
2019-05-22T12:23:03.212Z,16.10
2019-05-22T12:25:32.237Z,12.80
2019-05-22T12:28:01.030Z,10.85
2019-05-22T12:30:30.935Z,9.83
2019-05-22T12:33:01.214Z,11.75
2019-05-22T12:35:30.962Z,14.38
2019-05-22T12:38:00.846Z,12.90
2019-05-22T12:40:33.759Z,14.05
2019-05-22T12:43:03.266Z,12.77
2019-05-22T12:45:33.507Z,11.08
2019-05-22T12:48:04.261Z,14.13
2019-05-22T12:50:34.531Z,15.15
2019-05-22T12:53:06.037Z,18.07
2019-05-22T12:55:35.224Z,16.25
2019-05-22T12:58:05.829Z,17.05
2019-05-22T13:00:35.513Z,14.33
2019-05-22T13:03:06.593Z,16.10
2019-05-22T13:05:37.936Z,12.70
2019-05-22T13:08:08.773Z,16.73
2019-05-22T13:10:39.009Z,15.03
2019-05-22T13:13:08.807Z,15.43
2019-05-22T13:15:39.525Z,18.37
2019-05-22T13:18:09.996Z,16.35
2019-05-22T13:20:44.138Z,14.13
2019-05-22T13:23:13.907Z,18.45
2019-05-22T13:25:42.799Z,61.68
2019-05-22T13:28:14.494Z,19.30
2019-05-22T13:30:46.487Z,16.60
2019-05-22T13:33:18.121Z,22.58
2019-05-22T13:35:48.075Z,15.83
2019-05-22T13:38:17.960Z,21.30
2019-05-22T13:40:48.587Z,18.50
2019-05-22T13:43:17.413Z,24.75
2019-05-22T13:45:46.252Z,20.15
2019-05-22T13:48:15.119Z,19.05
2019-05-22T13:50:45.093Z,15.43
2019-05-22T13:53:17.327Z,13.95
2019-05-22T13:55:46.423Z,15.70
2019-05-22T13:58:15.817Z,17.17
2019-05-22T14:00:44.854Z,20.52
2019-05-22T14:03:14.733Z,15.38
2019-05-22T14:05:44.782Z,12.13
2019-05-22T14:08:13.981Z,11.80
2019-05-22T14:10:44.295Z,11.05
2019-05-22T14:13:13.560Z,9.73
2019-05-22T14:15:50.427Z,13.25
2019-05-22T14:18:13.837Z,11.28
2019-05-22T14:20:44.161Z,8.78
2019-05-22T14:23:14.017Z,10.13
2019-05-22T14:25:43.987Z,9.00
2019-05-22T14:28:13.964Z,8.05
2019-05-22T14:30:43.749Z,12.58
2019-05-22T14:33:12.859Z,8.48
2019-05-22T14:35:48.944Z,7.65
2019-05-22T14:38:13.366Z,6.40
2019-05-22T14:40:42.830Z,5.72
2019-05-22T14:43:12.123Z,9.00
2019-05-22T14:45:42.158Z,5.37
2019-05-22T14:48:11.503Z,8.55
2019-05-22T14:50:40.313Z,8.08
2019-05-22T14:53:10.498Z,6.05
2019-05-22T14:55:40.502Z,7.95
2019-05-22T14:58:10.031Z,6.67
2019-05-22T15:00:39.384Z,7.67
2019-05-22T15:03:08.969Z,7.60
2019-05-22T15:05:37.762Z,9.45
2019-05-22T15:08:07.331Z,11.38
2019-05-22T15:10:37.518Z,8.58
2019-05-22T15:13:07.683Z,6.35
2019-05-22T15:15:40.292Z,7.70
2019-05-22T15:18:07.238Z,6.83
2019-05-22T15:20:53.430Z,7.35
2019-05-22T15:23:23.474Z,8.63
2019-05-22T15:25:52.662Z,7.17
2019-05-22T15:28:26.019Z,5.90
2019-05-22T15:30:53.001Z,7.03
2019-05-22T15:33:22.061Z,6.15
2019-05-22T15:35:51.480Z,3.92
2019-05-22T15:38:22.045Z,3.98
2019-05-22T15:40:53.165Z,5.58
2019-05-22T15:43:23.889Z,3.65
2019-05-22T15:45:54.507Z,4.08
2019-05-22T15:48:28.093Z,5.80
2019-05-22T15:50:59.950Z,4.65
2019-05-22T15:53:31.074Z,7.12
2019-05-22T15:56:05.954Z,5.53
2019-05-22T15:58:37.267Z,8.30
2019-05-22T16:01:08.881Z,4.87
2019-05-22T16:03:40.518Z,5.78
2019-05-22T16:06:11.007Z,6.30
2019-05-22T16:08:40.117Z,2.55
2019-05-22T16:11:11.933Z,6.40
2019-05-22T16:13:41.333Z,5.87
2019-05-22T16:16:11.210Z,3.58
2019-05-22T16:18:42.172Z,4.30
2019-05-22T16:21:11.455Z,3.17
2019-05-22T16:23:41.143Z,4.58
2019-05-22T16:26:11.819Z,5.17
2019-05-22T16:28:42.782Z,4.78
2019-05-22T16:31:14.119Z,5.45
2019-05-22T16:33:44.446Z,4.70
2019-05-22T16:36:14.336Z,5.12
2019-05-22T16:38:44.600Z,4.03
2019-05-22T16:41:14.434Z,2.85
2019-05-22T16:43:49.784Z,3.90
2019-05-22T16:46:16.861Z,3.72
2019-05-22T16:48:48.886Z,4.03
2019-05-22T16:51:19.999Z,4.28
2019-05-22T16:53:54.877Z,10.35
2019-05-22T16:56:24.890Z,4.53
2019-05-22T16:58:54.728Z,4.53
2019-05-22T17:01:25.826Z,5.42
2019-05-22T17:03:58.175Z,8.10
2019-05-22T17:06:27.075Z,8.37
2019-05-22T17:08:58.033Z,14.98
2019-05-22T17:11:28.478Z,5.37
2019-05-22T17:14:01.621Z,7.15
2019-05-22T17:16:33.727Z,6.47
2019-05-22T17:19:25.241Z,4.10
2019-05-22T17:21:36.458Z,6.90
2019-05-22T17:24:08.582Z,4.83
2019-05-22T17:26:37.696Z,4.55
2019-05-22T17:29:06.943Z,5.75
2019-05-22T17:31:36.492Z,5.60
2019-05-22T17:34:08.099Z,4.65
2019-05-22T17:36:38.593Z,4.42
2019-05-22T17:39:10.018Z,4.67
2019-05-22T17:41:41.401Z,5.50
2019-05-22T17:44:12.145Z,4.90
2019-05-22T17:46:43.724Z,5.53
2019-05-22T17:49:12.589Z,4.70
2019-05-22T17:51:42.577Z,3.17
2019-05-22T17:54:11.730Z,5.03
2019-05-22T17:56:41.300Z,5.22
2019-05-22T17:59:10.209Z,5.83
2019-05-22T18:01:40.173Z,5.15
2019-05-22T18:04:09.351Z,4.25
2019-05-22T18:06:38.135Z,5.78
2019-05-22T18:09:09.176Z,5.95
2019-05-22T18:11:38.240Z,7.85
2019-05-22T18:14:07.878Z,6.53
2019-05-22T18:16:36.961Z,4.30
2019-05-22T18:19:07.086Z,10.40
2019-05-22T18:21:36.981Z,5.37
2019-05-22T18:24:06.241Z,5.20
2019-05-22T18:26:35.049Z,5.92
2019-05-22T18:29:04.310Z,4.30
2019-05-22T18:31:33.305Z,5.55
2019-05-22T18:34:02.021Z,6.62
2019-05-22T18:36:30.733Z,4.85
2019-05-22T18:38:59.577Z,5.03
2019-05-22T18:41:28.396Z,3.90
2019-05-22T18:43:57.817Z,7.72
2019-05-22T18:46:27.883Z,8.30
2019-05-22T18:48:57.148Z,5.30
2019-05-22T18:51:26.527Z,4.30
2019-05-22T18:53:55.241Z,3.85
2019-05-22T18:56:24.026Z,6.85
2019-05-22T18:58:53.841Z,5.97
2019-05-22T19:01:23.707Z,4.65
2019-05-22T19:03:52.455Z,6.95
2019-05-22T19:06:30.065Z,3.87
2019-05-22T19:08:52.694Z,4.83
2019-05-22T19:11:21.493Z,8.58
2019-05-22T19:13:50.282Z,5.80
2019-05-22T19:16:19.164Z,9.63
2019-05-22T19:18:47.878Z,6.03
2019-05-22T19:21:16.613Z,4.67
2019-05-22T19:23:45.469Z,3.52
2019-05-22T19:26:14.357Z,7.40
2019-05-22T19:28:44.613Z,6.35
2019-05-22T19:31:13.578Z,6.67
2019-05-22T19:33:43.607Z,7.15
2019-05-22T19:36:12.637Z,8.38
2019-05-22T19:38:41.488Z,3.33
2019-05-22T19:41:10.389Z,3.62
2019-05-22T19:43:39.706Z,5.15
2019-05-22T19:46:08.678Z,3.90
2019-05-22T19:48:37.485Z,4.15
2019-05-22T19:51:06.682Z,3.60
2019-05-22T19:53:35.583Z,5.90
2019-05-22T19:56:05.115Z,4.42
2019-05-22T19:58:33.877Z,6.40
2019-05-22T20:01:03.494Z,6.60
2019-05-22T20:03:33.181Z,3.72
2019-05-22T20:06:02.482Z,5.83
2019-05-22T20:08:31.212Z,7.87
2019-05-22T20:11:00.411Z,8.23
2019-05-22T20:13:29.274Z,6.47
2019-05-22T20:15:58.091Z,4.35
2019-05-22T20:18:26.915Z,5.83
2019-05-22T20:20:56.473Z,5.70
2019-05-22T20:23:35.383Z,5.28
2019-05-22T20:25:56.099Z,7.92
2019-05-22T20:28:26.040Z,6.22
2019-05-22T20:30:55.180Z,9.98
2019-05-22T20:33:26.868Z,6.67
2019-05-22T20:35:54.597Z,6.55
2019-05-22T20:38:24.666Z,5.58
2019-05-22T20:40:53.385Z,4.37
2019-05-22T20:43:22.776Z,9.85
2019-05-22T20:45:53.517Z,7.67
2019-05-22T20:48:33.183Z,8.05
2019-05-22T20:51:04.107Z,8.25
2019-05-22T20:53:52.203Z,5.45
2019-05-22T20:56:08.111Z,6.70
2019-05-22T20:58:36.897Z,6.10
2019-05-22T21:01:07.464Z,7.90
2019-05-22T21:03:36.774Z,7.40
2019-05-22T21:06:08.543Z,5.83
2019-05-22T21:08:38.139Z,7.60
2019-05-22T21:11:08.878Z,6.37
2019-05-22T21:13:38.201Z,7.53
2019-05-22T21:16:07.580Z,7.80
2019-05-22T21:18:38.483Z,6.92
2019-05-22T21:21:07.974Z,10.82
2019-05-22T21:23:38.230Z,6.67
2019-05-22T21:26:08.669Z,5.87
2019-05-22T21:28:38.266Z,6.53
2019-05-22T21:31:08.251Z,8.00
2019-05-22T21:33:37.892Z,9.55
2019-05-22T21:36:09.734Z,9.08
2019-05-22T21:38:38.970Z,8.73
2019-05-22T21:41:08.221Z,9.63
2019-05-22T21:43:37.470Z,6.65
2019-05-22T21:46:07.129Z,5.30
2019-05-22T21:48:36.436Z,6.47
2019-05-22T21:51:05.465Z,9.48
2019-05-22T21:53:35.063Z,7.20
2019-05-22T21:56:06.256Z,5.83
2019-05-22T21:58:35.093Z,9.90
2019-05-22T22:01:09.969Z,9.30
2019-05-22T22:03:40.413Z,5.35
2019-05-22T22:06:09.843Z,6.55
2019-05-22T22:08:38.573Z,11.43
2019-05-22T22:11:09.129Z,7.20
2019-05-22T22:13:39.291Z,9.00
2019-05-22T22:16:08.929Z,9.95
2019-05-22T22:18:39.422Z,6.08
2019-05-22T22:21:09.323Z,7.35
2019-05-22T22:23:38.993Z,6.45
2019-05-22T22:26:23.979Z,5.60
2019-05-22T22:28:38.536Z,7.87
2019-05-22T22:31:09.160Z,3.50
2019-05-22T22:33:38.983Z,6.92
2019-05-22T22:36:10.113Z,5.10
2019-05-22T22:38:39.986Z,6.78
2019-05-22T22:41:10.247Z,8.05
2019-05-22T22:43:41.075Z,5.33
2019-05-22T22:46:23.312Z,5.58
2019-05-22T22:48:53.961Z,5.30
2019-05-22T22:51:25.234Z,6.08
2019-05-22T22:53:56.158Z,5.87
2019-05-22T22:56:26.809Z,4.37
2019-05-22T22:58:56.163Z,5.58
2019-05-22T23:01:29.602Z,7.03
2019-05-22T23:06:28.106Z,5.97
2019-05-22T23:08:57.434Z,7.97
2019-05-22T23:11:27.565Z,8.53
2019-05-22T23:13:57.285Z,5.83
2019-05-22T23:16:27.547Z,5.30
2019-05-22T23:19:15.844Z,10.50
2019-05-22T23:21:45.114Z,6.17
2019-05-22T23:24:14.562Z,5.97
2019-05-22T23:26:44.744Z,5.85
2019-05-22T23:29:14.322Z,7.87
2019-05-22T23:31:44.621Z,5.83
2019-05-22T23:34:13.932Z,5.15
2019-05-22T23:36:44.413Z,3.42
2019-05-22T23:39:15.494Z,5.33
2019-05-22T23:41:45.195Z,4.70
2019-05-22T23:44:17.028Z,4.45
2019-05-22T23:46:46.289Z,6.17
2019-05-22T23:49:15.840Z,6.83
2019-05-22T23:51:45.507Z,5.72
2019-05-22T23:54:14.880Z,4.85
2019-05-22T23:56:44.365Z,4.87
2019-05-22T23:59:17.987Z,4.55
